sensor_id;sensor_type;location;lat;lon;timestamp;pressure;altitude;pressure_sealevel;temperature;humidity
60267;BME280;46125;61.360;-149.532;2023-07-28T00:00:39;100611.23;;;22.21;46.13
60267;BME280;46125;61.360;-149.532;2023-07-28T00:03:08;100608.89;;;23.31;43.11
60267;BME280;46125;61.360;-149.532;2023-07-28T00:05:37;100609.31;;;22.07;45.36
60267;BME280;46125;61.360;-149.532;2023-07-28T00:08:06;100611.04;;;21.47;45.18
60267;BME280;46125;61.360;-149.532;2023-07-28T00:10:34;100612.75;;;22.09;46.88
60267;BME280;46125;61.360;-149.532;2023-07-28T00:13:07;100610.19;;;22.05;47.16
60267;BME280;46125;61.360;-149.532;2023-07-28T00:15:36;100610.63;;;22.28;47.65
60267;BME280;46125;61.360;-149.532;2023-07-28T00:18:04;100610.18;;;21.80;49.43
60267;BME280;46125;61.360;-149.532;2023-07-28T00:20:32;100609.72;;;20.91;47.76
60267;BME280;46125;61.360;-149.532;2023-07-28T00:23:01;100609.95;;;21.31;48.27
60267;BME280;46125;61.360;-149.532;2023-07-28T00:25:29;100611.30;;;21.28;49.63
60267;BME280;46125;61.360;-149.532;2023-07-28T00:27:57;100607.32;;;22.30;48.99
60267;BME280;46125;61.360;-149.532;2023-07-28T00:30:26;100609.54;;;22.27;48.32
60267;BME280;46125;61.360;-149.532;2023-07-28T00:32:55;100607.01;;;23.11;46.20
60267;BME280;46125;61.360;-149.532;2023-07-28T00:35:23;100606.11;;;21.03;50.07
60267;BME280;46125;61.360;-149.532;2023-07-28T00:37:52;100608.93;;;23.37;46.70
60267;BME280;46125;61.360;-149.532;2023-07-28T00:40:21;100608.08;;;22.18;48.48
60267;BME280;46125;61.360;-149.532;2023-07-28T00:42:49;100612.74;;;21.93;47.29
60267;BME280;46125;61.360;-149.532;2023-07-28T00:45:18;100616.04;;;23.06;45.10
60267;BME280;46125;61.360;-149.532;2023-07-28T00:47:51;100614.94;;;22.74;47.63
60267;BME280;46125;61.360;-149.532;2023-07-28T00:50:20;100610.90;;;22.17;45.62
60267;BME280;46125;61.360;-149.532;2023-07-28T00:52:48;100606.11;;;21.18;49.75
60267;BME280;46125;61.360;-149.532;2023-07-28T00:55:17;100601.99;;;21.86;48.76
60267;BME280;46125;61.360;-149.532;2023-07-28T00:57:46;100599.92;;;23.45;45.86
60267;BME280;46125;61.360;-149.532;2023-07-28T01:00:14;100594.88;;;23.61;44.27
60267;BME280;46125;61.360;-149.532;2023-07-28T01:02:43;100591.78;;;23.09;44.15
60267;BME280;46125;61.360;-149.532;2023-07-28T01:05:11;100592.77;;;22.13;46.43
60267;BME280;46125;61.360;-149.532;2023-07-28T01:07:46;100592.34;;;22.68;47.44
60267;BME280;46125;61.360;-149.532;2023-07-28T01:10:24;100586.81;;;22.74;46.20
60267;BME280;46125;61.360;-149.532;2023-07-28T01:12:54;100585.07;;;22.66;46.87
60267;BME280;46125;61.360;-149.532;2023-07-28T01:15:22;100588.54;;;22.97;44.99
60267;BME280;46125;61.360;-149.532;2023-07-28T01:17:51;100588.80;;;23.03;47.19
60267;BME280;46125;61.360;-149.532;2023-07-28T01:20:21;100586.68;;;22.45;47.77
60267;BME280;46125;61.360;-149.532;2023-07-28T01:23:05;100583.89;;;22.71;47.54
60267;BME280;46125;61.360;-149.532;2023-07-28T01:25:48;100580.04;;;22.76;46.37
60267;BME280;46125;61.360;-149.532;2023-07-28T01:28:18;100575.97;;;22.85;45.91
60267;BME280;46125;61.360;-149.532;2023-07-28T01:30:47;100577.12;;;21.75;47.19
60267;BME280;46125;61.360;-149.532;2023-07-28T01:33:16;100577.12;;;21.45;49.01
60267;BME280;46125;61.360;-149.532;2023-07-28T01:35:44;100574.13;;;22.48;45.45
60267;BME280;46125;61.360;-149.532;2023-07-28T01:38:13;100578.39;;;21.88;49.08
60267;BME280;46125;61.360;-149.532;2023-07-28T01:40:41;100577.22;;;22.68;46.81
60267;BME280;46125;61.360;-149.532;2023-07-28T01:43:10;100576.70;;;23.16;45.61
60267;BME280;46125;61.360;-149.532;2023-07-28T01:45:38;100578.13;;;23.57;46.58
60267;BME280;46125;61.360;-149.532;2023-07-28T01:48:07;100577.80;;;21.60;49.78
60267;BME280;46125;61.360;-149.532;2023-07-28T01:50:35;100574.08;;;20.92;51.35
60267;BME280;46125;61.360;-149.532;2023-07-28T01:53:05;100571.36;;;21.16;50.30
60267;BME280;46125;61.360;-149.532;2023-07-28T01:55:34;100574.13;;;20.90;52.17
60267;BME280;46125;61.360;-149.532;2023-07-28T01:58:03;100572.05;;;20.68;50.20
60267;BME280;46125;61.360;-149.532;2023-07-28T02:00:31;100574.23;;;22.02;49.26
60267;BME280;46125;61.360;-149.532;2023-07-28T02:02:59;100572.99;;;21.75;48.70
60267;BME280;46125;61.360;-149.532;2023-07-28T02:05:28;100574.66;;;22.32;48.79
60267;BME280;46125;61.360;-149.532;2023-07-28T02:07:57;100571.50;;;21.68;49.46
60267;BME280;46125;61.360;-149.532;2023-07-28T02:10:29;100573.47;;;22.02;47.31
60267;BME280;46125;61.360;-149.532;2023-07-28T02:12:58;100575.10;;;22.39;47.75
60267;BME280;46125;61.360;-149.532;2023-07-28T02:15:26;100572.99;;;21.87;47.60
60267;BME280;46125;61.360;-149.532;2023-07-28T02:17:54;100572.71;;;22.36;45.09
60267;BME280;46125;61.360;-149.532;2023-07-28T02:20:23;100573.70;;;22.79;45.78
60267;BME280;46125;61.360;-149.532;2023-07-28T02:22:51;100574.58;;;20.15;50.31
60267;BME280;46125;61.360;-149.532;2023-07-28T02:25:20;100571.42;;;22.01;47.41
60267;BME280;46125;61.360;-149.532;2023-07-28T02:27:48;100572.39;;;23.65;44.99
60267;BME280;46125;61.360;-149.532;2023-07-28T02:30:17;100574.99;;;21.68;48.34
60267;BME280;46125;61.360;-149.532;2023-07-28T02:32:45;100576.31;;;21.85;46.79
60267;BME280;46125;61.360;-149.532;2023-07-28T02:35:14;100573.77;;;21.96;45.57
60267;BME280;46125;61.360;-149.532;2023-07-28T02:37:42;100573.54;;;22.44;45.70
60267;BME280;46125;61.360;-149.532;2023-07-28T02:40:11;100573.09;;;21.00;48.60
60267;BME280;46125;61.360;-149.532;2023-07-28T02:42:39;100569.05;;;20.70;48.93
60267;BME280;46125;61.360;-149.532;2023-07-28T02:45:08;100566.94;;;20.84;50.21
60267;BME280;46125;61.360;-149.532;2023-07-28T02:47:37;100560.09;;;19.79;52.28
60267;BME280;46125;61.360;-149.532;2023-07-28T02:50:06;100558.59;;;20.13;51.33
60267;BME280;46125;61.360;-149.532;2023-07-28T02:52:34;100559.83;;;20.45;52.26
60267;BME280;46125;61.360;-149.532;2023-07-28T02:55:03;100560.31;;;20.55;51.31
60267;BME280;46125;61.360;-149.532;2023-07-28T02:57:31;100559.44;;;21.18;48.75
60267;BME280;46125;61.360;-149.532;2023-07-28T03:00:00;100559.87;;;21.07;50.78
60267;BME280;46125;61.360;-149.532;2023-07-28T03:02:28;100559.31;;;21.06;48.61
60267;BME280;46125;61.360;-149.532;2023-07-28T03:04:57;100561.17;;;21.29;48.56
60267;BME280;46125;61.360;-149.532;2023-07-28T03:07:26;100559.89;;;20.87;50.66
60267;BME280;46125;61.360;-149.532;2023-07-28T03:09:55;100561.79;;;20.19;51.15
60267;BME280;46125;61.360;-149.532;2023-07-28T03:12:24;100565.14;;;19.72;53.65
60267;BME280;46125;61.360;-149.532;2023-07-28T03:14:52;100564.42;;;19.82;51.84
60267;BME280;46125;61.360;-149.532;2023-07-28T03:17:21;100563.04;;;19.86;51.92
60267;BME280;46125;61.360;-149.532;2023-07-28T03:19:50;100567.10;;;20.58;51.76
60267;BME280;46125;61.360;-149.532;2023-07-28T03:22:18;100570.51;;;19.45;54.31
60267;BME280;46125;61.360;-149.532;2023-07-28T03:24:46;100572.97;;;20.63;51.95
60267;BME280;46125;61.360;-149.532;2023-07-28T03:27:20;100569.94;;;20.74;52.27
60267;BME280;46125;61.360;-149.532;2023-07-28T03:29:49;100572.80;;;19.42;52.34
60267;BME280;46125;61.360;-149.532;2023-07-28T03:32:22;100573.11;;;19.92;53.63
60267;BME280;46125;61.360;-149.532;2023-07-28T03:34:51;100576.67;;;20.61;52.09
60267;BME280;46125;61.360;-149.532;2023-07-28T03:37:19;100578.47;;;20.21;49.10
60267;BME280;46125;61.360;-149.532;2023-07-28T03:39:48;100582.78;;;20.48;48.34
60267;BME280;46125;61.360;-149.532;2023-07-28T03:42:16;100584.54;;;20.88;49.44
60267;BME280;46125;61.360;-149.532;2023-07-28T03:44:44;100587.28;;;20.73;50.16
60267;BME280;46125;61.360;-149.532;2023-07-28T03:47:13;100584.76;;;20.80;49.71
60267;BME280;46125;61.360;-149.532;2023-07-28T03:49:41;100582.45;;;20.44;49.79
60267;BME280;46125;61.360;-149.532;2023-07-28T03:52:10;100581.16;;;20.58;49.90
60267;BME280;46125;61.360;-149.532;2023-07-28T03:54:38;100581.82;;;20.65;50.04
60267;BME280;46125;61.360;-149.532;2023-07-28T03:57:08;100582.70;;;20.32;49.16
60267;BME280;46125;61.360;-149.532;2023-07-28T03:59:36;100579.57;;;20.38;49.48
60267;BME280;46125;61.360;-149.532;2023-07-28T04:02:05;100573.85;;;20.86;48.07
60267;BME280;46125;61.360;-149.532;2023-07-28T04:04:35;100570.73;;;20.44;50.46
60267;BME280;46125;61.360;-149.532;2023-07-28T04:07:03;100570.75;;;19.37;49.73
60267;BME280;46125;61.360;-149.532;2023-07-28T04:09:32;100565.94;;;20.17;49.48
60267;BME280;46125;61.360;-149.532;2023-07-28T04:12:01;100570.36;;;20.40;50.33
60267;BME280;46125;61.360;-149.532;2023-07-28T04:14:29;100570.53;;;19.76;52.19
60267;BME280;46125;61.360;-149.532;2023-07-28T04:16:58;100569.30;;;19.38;50.29
60267;BME280;46125;61.360;-149.532;2023-07-28T04:19:26;100568.80;;;19.81;50.00
60267;BME280;46125;61.360;-149.532;2023-07-28T04:21:54;100570.77;;;19.52;51.96
60267;BME280;46125;61.360;-149.532;2023-07-28T04:24:23;100568.37;;;20.29;51.57
60267;BME280;46125;61.360;-149.532;2023-07-28T04:26:53;100565.27;;;20.07;51.58
60267;BME280;46125;61.360;-149.532;2023-07-28T04:29:27;100568.66;;;19.24;51.32
60267;BME280;46125;61.360;-149.532;2023-07-28T04:31:57;100565.62;;;20.30;50.33
60267;BME280;46125;61.360;-149.532;2023-07-28T04:34:25;100562.25;;;20.29;50.97
60267;BME280;46125;61.360;-149.532;2023-07-28T04:36:54;100559.91;;;19.10;52.46
60267;BME280;46125;61.360;-149.532;2023-07-28T04:39:23;100556.45;;;20.65;51.86
60267;BME280;46125;61.360;-149.532;2023-07-28T04:41:57;100555.07;;;19.27;54.62
60267;BME280;46125;61.360;-149.532;2023-07-28T04:44:25;100552.82;;;20.15;52.15
60267;BME280;46125;61.360;-149.532;2023-07-28T04:46:54;100550.90;;;20.14;51.73
60267;BME280;46125;61.360;-149.532;2023-07-28T04:49:22;100556.02;;;20.67;49.38
60267;BME280;46125;61.360;-149.532;2023-07-28T04:51:51;100557.23;;;20.11;51.19
60267;BME280;46125;61.360;-149.532;2023-07-28T04:54:19;100553.25;;;19.93;51.12
60267;BME280;46125;61.360;-149.532;2023-07-28T04:56:48;100553.45;;;20.62;49.83
60267;BME280;46125;61.360;-149.532;2023-07-28T04:59:16;100555.47;;;20.21;53.14
60267;BME280;46125;61.360;-149.532;2023-07-28T05:01:45;100557.31;;;19.16;52.38
60267;BME280;46125;61.360;-149.532;2023-07-28T05:04:13;100558.01;;;19.52;53.06
60267;BME280;46125;61.360;-149.532;2023-07-28T05:06:41;100557.95;;;20.37;51.85
60267;BME280;46125;61.360;-149.532;2023-07-28T05:09:10;100560.34;;;19.91;51.96
60267;BME280;46125;61.360;-149.532;2023-07-28T05:11:38;100562.60;;;20.03;53.30
60267;BME280;46125;61.360;-149.532;2023-07-28T05:14:08;100568.74;;;20.63;52.46
60267;BME280;46125;61.360;-149.532;2023-07-28T05:16:36;100566.93;;;20.75;51.29
60267;BME280;46125;61.360;-149.532;2023-07-28T05:19:07;100567.75;;;20.78;51.39
60267;BME280;46125;61.360;-149.532;2023-07-28T05:21:35;100571.47;;;20.17;51.70
60267;BME280;46125;61.360;-149.532;2023-07-28T05:24:04;100570.88;;;19.71;54.94
60267;BME280;46125;61.360;-149.532;2023-07-28T05:26:32;100576.64;;;19.13;54.75
60267;BME280;46125;61.360;-149.532;2023-07-28T05:29:01;100577.49;;;20.23;52.31
60267;BME280;46125;61.360;-149.532;2023-07-28T05:31:30;100576.06;;;19.03;53.06
60267;BME280;46125;61.360;-149.532;2023-07-28T05:33:58;100572.34;;;20.06;50.70
60267;BME280;46125;61.360;-149.532;2023-07-28T05:36:26;100571.40;;;19.97;54.18
60267;BME280;46125;61.360;-149.532;2023-07-28T05:38:56;100579.71;;;18.42;54.15
60267;BME280;46125;61.360;-149.532;2023-07-28T05:41:27;100580.37;;;18.83;53.76
60267;BME280;46125;61.360;-149.532;2023-07-28T05:43:55;100579.23;;;19.34;53.58
60267;BME280;46125;61.360;-149.532;2023-07-28T05:46:29;100578.87;;;19.32;53.09
60267;BME280;46125;61.360;-149.532;2023-07-28T05:48:58;100580.74;;;19.21;53.94
60267;BME280;46125;61.360;-149.532;2023-07-28T05:51:27;100582.56;;;18.99;54.27
60267;BME280;46125;61.360;-149.532;2023-07-28T05:53:55;100586.26;;;18.63;56.10
60267;BME280;46125;61.360;-149.532;2023-07-28T05:56:24;100579.41;;;19.50;52.57
60267;BME280;46125;61.360;-149.532;2023-07-28T05:58:53;100579.05;;;18.99;53.85
60267;BME280;46125;61.360;-149.532;2023-07-28T06:01:26;100581.94;;;18.75;53.48
60267;BME280;46125;61.360;-149.532;2023-07-28T06:03:56;100578.51;;;18.79;53.73
60267;BME280;46125;61.360;-149.532;2023-07-28T06:06:23;100579.35;;;18.00;56.30
60267;BME280;46125;61.360;-149.532;2023-07-28T06:08:52;100576.54;;;18.87;53.60
60267;BME280;46125;61.360;-149.532;2023-07-28T06:11:21;100574.82;;;19.01;52.96
60267;BME280;46125;61.360;-149.532;2023-07-28T06:13:50;100583.05;;;18.72;53.24
60267;BME280;46125;61.360;-149.532;2023-07-28T06:16:19;100586.08;;;18.76;52.64
60267;BME280;46125;61.360;-149.532;2023-07-28T06:18:48;100585.21;;;18.86;53.26
60267;BME280;46125;61.360;-149.532;2023-07-28T06:21:16;100581.95;;;18.11;54.47
60267;BME280;46125;61.360;-149.532;2023-07-28T06:23:45;100580.71;;;17.76;55.49
60267;BME280;46125;61.360;-149.532;2023-07-28T06:26:13;100578.55;;;17.74;55.92
60267;BME280;46125;61.360;-149.532;2023-07-28T06:28:42;100580.57;;;17.61;56.39
60267;BME280;46125;61.360;-149.532;2023-07-28T06:31:10;100581.43;;;17.51;56.62
60267;BME280;46125;61.360;-149.532;2023-07-28T06:33:38;100580.84;;;16.90;56.77
60267;BME280;46125;61.360;-149.532;2023-07-28T06:36:17;100585.85;;;16.11;59.69
60267;BME280;46125;61.360;-149.532;2023-07-28T06:38:45;100591.93;;;17.37;56.47
60267;BME280;46125;61.360;-149.532;2023-07-28T06:41:13;100593.32;;;16.80;56.56
60267;BME280;46125;61.360;-149.532;2023-07-28T06:43:42;100592.49;;;16.66;58.20
60267;BME280;46125;61.360;-149.532;2023-07-28T06:46:11;100593.58;;;16.24;58.94
60267;BME280;46125;61.360;-149.532;2023-07-28T06:48:39;100595.95;;;15.63;60.26
60267;BME280;46125;61.360;-149.532;2023-07-28T06:51:08;100600.80;;;15.44;60.25
60267;BME280;46125;61.360;-149.532;2023-07-28T06:53:37;100603.67;;;14.74;62.07
60267;BME280;46125;61.360;-149.532;2023-07-28T06:56:06;100608.22;;;14.73;62.73
60267;BME280;46125;61.360;-149.532;2023-07-28T06:58:34;100609.50;;;14.54;63.45
60267;BME280;46125;61.360;-149.532;2023-07-28T07:01:02;100611.08;;;14.60;63.07
60267;BME280;46125;61.360;-149.532;2023-07-28T07:03:31;100610.39;;;14.41;62.77
60267;BME280;46125;61.360;-149.532;2023-07-28T07:06:00;100614.34;;;14.72;61.60
60267;BME280;46125;61.360;-149.532;2023-07-28T07:08:29;100614.46;;;14.78;61.61
60267;BME280;46125;61.360;-149.532;2023-07-28T07:10:57;100611.46;;;14.89;61.43
60267;BME280;46125;61.360;-149.532;2023-07-28T07:13:26;100616.37;;;14.20;62.22
60267;BME280;46125;61.360;-149.532;2023-07-28T07:15:54;100616.10;;;14.76;62.22
60267;BME280;46125;61.360;-149.532;2023-07-28T07:18:23;100613.61;;;15.41;58.66
60267;BME280;46125;61.360;-149.532;2023-07-28T07:20:52;100609.99;;;15.37;59.20
60267;BME280;46125;61.360;-149.532;2023-07-28T07:23:20;100610.37;;;14.35;60.99
60267;BME280;46125;61.360;-149.532;2023-07-28T07:25:55;100609.99;;;15.06;59.86
60267;BME280;46125;61.360;-149.532;2023-07-28T07:28:24;100610.06;;;15.09;60.41
60267;BME280;46125;61.360;-149.532;2023-07-28T07:30:52;100607.80;;;15.33;58.78
60267;BME280;46125;61.360;-149.532;2023-07-28T07:33:21;100611.41;;;15.79;57.89
60267;BME280;46125;61.360;-149.532;2023-07-28T07:35:50;100612.45;;;15.15;58.82
60267;BME280;46125;61.360;-149.532;2023-07-28T07:38:18;100619.54;;;16.07;57.88
60267;BME280;46125;61.360;-149.532;2023-07-28T07:40:47;100621.75;;;16.36;56.70
60267;BME280;46125;61.360;-149.532;2023-07-28T07:43:17;100625.31;;;16.34;56.97
60267;BME280;46125;61.360;-149.532;2023-07-28T07:45:45;100628.92;;;16.48;55.25
60267;BME280;46125;61.360;-149.532;2023-07-28T07:48:13;100626.34;;;16.27;57.05
60267;BME280;46125;61.360;-149.532;2023-07-28T07:50:42;100626.88;;;16.18;56.70
60267;BME280;46125;61.360;-149.532;2023-07-28T07:53:11;100626.19;;;16.22;56.80
60267;BME280;46125;61.360;-149.532;2023-07-28T07:55:39;100632.56;;;15.50;57.82
60267;BME280;46125;61.360;-149.532;2023-07-28T07:58:08;100633.86;;;15.21;58.30
60267;BME280;46125;61.360;-149.532;2023-07-28T08:00:37;100634.59;;;16.21;57.30
60267;BME280;46125;61.360;-149.532;2023-07-28T08:03:06;100631.55;;;16.05;57.74
60267;BME280;46125;61.360;-149.532;2023-07-28T08:05:35;100627.26;;;16.54;57.05
60267;BME280;46125;61.360;-149.532;2023-07-28T08:08:03;100623.29;;;16.32;57.13
60267;BME280;46125;61.360;-149.532;2023-07-28T08:10:31;100619.71;;;16.71;56.45
60267;BME280;46125;61.360;-149.532;2023-07-28T08:13:00;100615.22;;;16.66;56.54
60267;BME280;46125;61.360;-149.532;2023-07-28T08:15:39;100614.52;;;16.50;56.90
60267;BME280;46125;61.360;-149.532;2023-07-28T08:18:07;100615.15;;;16.59;56.08
60267;BME280;46125;61.360;-149.532;2023-07-28T08:20:36;100611.45;;;16.44;56.60
60267;BME280;46125;61.360;-149.532;2023-07-28T08:23:05;100609.16;;;16.83;56.15
60267;BME280;46125;61.360;-149.532;2023-07-28T08:25:33;100605.24;;;16.85;55.96
60267;BME280;46125;61.360;-149.532;2023-07-28T08:28:02;100600.94;;;16.57;57.16
60267;BME280;46125;61.360;-149.532;2023-07-28T08:30:30;100593.09;;;16.56;57.63
60267;BME280;46125;61.360;-149.532;2023-07-28T08:32:59;100596.65;;;16.88;54.04
60267;BME280;46125;61.360;-149.532;2023-07-28T08:35:31;100596.13;;;17.06;54.42
60267;BME280;46125;61.360;-149.532;2023-07-28T08:37:59;100592.85;;;16.64;55.29
60267;BME280;46125;61.360;-149.532;2023-07-28T08:40:28;100592.99;;;16.25;56.47
60267;BME280;46125;61.360;-149.532;2023-07-28T08:42:56;100587.55;;;16.15;57.37
60267;BME280;46125;61.360;-149.532;2023-07-28T08:45:25;100585.02;;;16.87;55.55
60267;BME280;46125;61.360;-149.532;2023-07-28T08:47:53;100584.55;;;16.56;56.18
60267;BME280;46125;61.360;-149.532;2023-07-28T08:50:23;100584.67;;;16.31;56.94
60267;BME280;46125;61.360;-149.532;2023-07-28T08:52:52;100590.48;;;16.66;56.71
60267;BME280;46125;61.360;-149.532;2023-07-28T08:55:23;100592.66;;;16.41;56.66
60267;BME280;46125;61.360;-149.532;2023-07-28T08:57:51;100589.46;;;17.08;55.23
60267;BME280;46125;61.360;-149.532;2023-07-28T09:00:21;100588.65;;;17.24;55.33
60267;BME280;46125;61.360;-149.532;2023-07-28T09:02:56;100591.09;;;17.74;54.54
60267;BME280;46125;61.360;-149.532;2023-07-28T09:05:25;100595.91;;;18.16;53.70
60267;BME280;46125;61.360;-149.532;2023-07-28T09:07:53;100599.22;;;18.12;53.99
60267;BME280;46125;61.360;-149.532;2023-07-28T09:10:22;100602.49;;;18.17;54.00
60267;BME280;46125;61.360;-149.532;2023-07-28T09:12:51;100606.24;;;18.25;54.19
60267;BME280;46125;61.360;-149.532;2023-07-28T09:15:20;100613.54;;;18.34;53.46
60267;BME280;46125;61.360;-149.532;2023-07-28T09:17:49;100617.48;;;17.93;52.87
60267;BME280;46125;61.360;-149.532;2023-07-28T09:20:17;100622.40;;;18.03;53.32
60267;BME280;46125;61.360;-149.532;2023-07-28T09:22:51;100623.02;;;17.63;54.10
60267;BME280;46125;61.360;-149.532;2023-07-28T09:25:20;100631.81;;;16.73;56.75
60267;BME280;46125;61.360;-149.532;2023-07-28T09:27:52;100630.96;;;16.71;56.87
60267;BME280;46125;61.360;-149.532;2023-07-28T09:30:21;100626.73;;;16.14;59.87
60267;BME280;46125;61.360;-149.532;2023-07-28T09:32:53;100626.24;;;16.40;57.69
60267;BME280;46125;61.360;-149.532;2023-07-28T09:35:23;100627.22;;;16.45;58.47
60267;BME280;46125;61.360;-149.532;2023-07-28T09:37:52;100627.81;;;16.12;59.82
60267;BME280;46125;61.360;-149.532;2023-07-28T09:40:22;100626.60;;;16.01;59.54
60267;BME280;46125;61.360;-149.532;2023-07-28T09:42:56;100626.22;;;15.32;61.04
60267;BME280;46125;61.360;-149.532;2023-07-28T09:45:25;100628.86;;;15.43;60.51
60267;BME280;46125;61.360;-149.532;2023-07-28T09:47:56;100628.29;;;16.51;58.09
60267;BME280;46125;61.360;-149.532;2023-07-28T09:50:28;100626.47;;;15.87;58.84
60267;BME280;46125;61.360;-149.532;2023-07-28T09:53:01;100625.37;;;15.64;60.05
60267;BME280;46125;61.360;-149.532;2023-07-28T09:55:30;100621.66;;;16.23;57.76
60267;BME280;46125;61.360;-149.532;2023-07-28T09:58:03;100619.62;;;15.95;58.07
60267;BME280;46125;61.360;-149.532;2023-07-28T10:00:34;100616.08;;;15.22;59.13
60267;BME280;46125;61.360;-149.532;2023-07-28T10:03:03;100608.80;;;15.91;59.04
60267;BME280;46125;61.360;-149.532;2023-07-28T10:05:32;100608.30;;;16.17;57.90
60267;BME280;46125;61.360;-149.532;2023-07-28T10:08:02;100608.60;;;17.18;56.16
60267;BME280;46125;61.360;-149.532;2023-07-28T10:10:31;100611.18;;;17.04;55.18
60267;BME280;46125;61.360;-149.532;2023-07-28T10:13:00;100616.76;;;17.33;54.85
60267;BME280;46125;61.360;-149.532;2023-07-28T10:15:30;100616.50;;;16.81;54.80
60267;BME280;46125;61.360;-149.532;2023-07-28T10:17:59;100613.70;;;17.05;56.45
60267;BME280;46125;61.360;-149.532;2023-07-28T10:20:30;100614.53;;;16.66;53.86
60267;BME280;46125;61.360;-149.532;2023-07-28T10:23:12;100615.14;;;17.69;53.33
60267;BME280;46125;61.360;-149.532;2023-07-28T10:25:42;100615.33;;;18.04;53.49
60267;BME280;46125;61.360;-149.532;2023-07-28T10:28:27;100610.92;;;18.08;52.52
60267;BME280;46125;61.360;-149.532;2023-07-28T10:30:56;100608.19;;;17.80;52.99
60267;BME280;46125;61.360;-149.532;2023-07-28T10:33:30;100597.08;;;17.52;53.47
60267;BME280;46125;61.360;-149.532;2023-07-28T10:36:09;100596.56;;;18.04;52.78
60267;BME280;46125;61.360;-149.532;2023-07-28T10:38:39;100597.12;;;18.30;52.49
60267;BME280;46125;61.360;-149.532;2023-07-28T10:41:17;100604.62;;;17.95;52.41
60267;BME280;46125;61.360;-149.532;2023-07-28T10:43:47;100602.34;;;18.26;52.14
60267;BME280;46125;61.360;-149.532;2023-07-28T10:46:16;100593.57;;;18.33;52.33
60267;BME280;46125;61.360;-149.532;2023-07-28T10:48:47;100588.00;;;18.43;52.27
60267;BME280;46125;61.360;-149.532;2023-07-28T10:51:22;100584.77;;;18.31;51.10
60267;BME280;46125;61.360;-149.532;2023-07-28T10:53:51;100586.56;;;18.41;50.12
60267;BME280;46125;61.360;-149.532;2023-07-28T10:56:19;100587.42;;;18.65;48.90
60267;BME280;46125;61.360;-149.532;2023-07-28T10:58:56;100584.57;;;18.45;49.74
60267;BME280;46125;61.360;-149.532;2023-07-28T11:01:31;100580.61;;;18.27;49.71
60267;BME280;46125;61.360;-149.532;2023-07-28T11:04:08;100574.96;;;18.68;50.36
60267;BME280;46125;61.360;-149.532;2023-07-28T11:06:36;100574.87;;;18.47;50.49
60267;BME280;46125;61.360;-149.532;2023-07-28T11:09:06;100571.29;;;18.47;50.12
60267;BME280;46125;61.360;-149.532;2023-07-28T11:11:35;100568.71;;;18.64;51.24
60267;BME280;46125;61.360;-149.532;2023-07-28T11:14:05;100562.60;;;18.22;51.14
60267;BME280;46125;61.360;-149.532;2023-07-28T11:16:34;100559.74;;;18.56;51.04
60267;BME280;46125;61.360;-149.532;2023-07-28T11:19:07;100558.96;;;18.89;50.31
60267;BME280;46125;61.360;-149.532;2023-07-28T11:21:37;100557.87;;;18.71;50.39
60267;BME280;46125;61.360;-149.532;2023-07-28T11:24:07;100554.06;;;18.68;50.71
60267;BME280;46125;61.360;-149.532;2023-07-28T11:26:36;100556.95;;;18.57;50.29
60267;BME280;46125;61.360;-149.532;2023-07-28T11:29:06;100558.62;;;18.57;50.54
60267;BME280;46125;61.360;-149.532;2023-07-28T11:31:35;100561.66;;;18.07;51.71
60267;BME280;46125;61.360;-149.532;2023-07-28T11:34:04;100566.98;;;18.11;52.05
60267;BME280;46125;61.360;-149.532;2023-07-28T11:36:41;100560.31;;;17.87;52.33
60267;BME280;46125;61.360;-149.532;2023-07-28T11:39:10;100557.64;;;18.08;52.12
60267;BME280;46125;61.360;-149.532;2023-07-28T11:41:39;100561.69;;;17.72;52.97
60267;BME280;46125;61.360;-149.532;2023-07-28T11:44:09;100562.58;;;17.89;52.87
60267;BME280;46125;61.360;-149.532;2023-07-28T11:46:39;100565.53;;;18.00;52.57
60267;BME280;46125;61.360;-149.532;2023-07-28T11:49:10;100562.80;;;18.26;52.78
60267;BME280;46125;61.360;-149.532;2023-07-28T11:51:40;100555.49;;;18.36;52.71
60267;BME280;46125;61.360;-149.532;2023-07-28T11:54:11;100546.83;;;18.45;53.18
60267;BME280;46125;61.360;-149.532;2023-07-28T11:56:40;100546.16;;;18.01;53.18
60267;BME280;46125;61.360;-149.532;2023-07-28T11:59:09;100547.22;;;18.35;52.46
60267;BME280;46125;61.360;-149.532;2023-07-28T12:01:53;100544.78;;;18.17;52.65
60267;BME280;46125;61.360;-149.532;2023-07-28T12:04:23;100537.71;;;18.14;51.99
60267;BME280;46125;61.360;-149.532;2023-07-28T12:07:29;100535.82;;;18.15;51.46
60267;BME280;46125;61.360;-149.532;2023-07-28T12:10:02;100532.17;;;17.95;51.78
60267;BME280;46125;61.360;-149.532;2023-07-28T12:12:38;100534.11;;;18.13;52.42
60267;BME280;46125;61.360;-149.532;2023-07-28T12:15:20;100534.34;;;17.60;52.87
60267;BME280;46125;61.360;-149.532;2023-07-28T12:18:07;100536.24;;;18.01;53.35
60267;BME280;46125;61.360;-149.532;2023-07-28T12:20:38;100539.46;;;18.07;52.77
60267;BME280;46125;61.360;-149.532;2023-07-28T12:23:06;100538.84;;;18.29;53.26
60267;BME280;46125;61.360;-149.532;2023-07-28T12:25:36;100538.56;;;18.26;53.39
60267;BME280;46125;61.360;-149.532;2023-07-28T12:28:05;100538.96;;;18.19;53.43
60267;BME280;46125;61.360;-149.532;2023-07-28T12:30:33;100541.39;;;17.96;52.24
60267;BME280;46125;61.360;-149.532;2023-07-28T12:33:01;100545.88;;;17.93;52.81